עמוד ראשי
תמונות לווין תחזית 10-יוםאקליםתחזית ים סופות טרופיות ברקים שדות תעופהשאלות נפוצות עלון אודות
מזג אוויר : אירופה אפריקה אמריקה הצפונית אמריקה הדרומית אסיה אוסטרליה-אוקיאניה אחרים
שפות איש קשר

שטוטגרט, גרמניה

קו רוחב: 48-41N, קו אורך: 009-13E, גובה: 396מטר


METAR: EDDS 040820Z 13004KT 060V170 CAVOK 29/19 Q1022 NOSIG
TAF: EDDS 040500Z 0406/0506 VRB03KT CAVOK

זמן: 10:26 (08:26 UTC)

תצפית מזג אוויר נוכחית

הדו"ח נערך לפני 6דקות, בשעה 08:20 UTC
רוח 4קשר מכיוון דרום-מזרח, משתנה בין מזרח/צפון-מזרח ו דרום
טמפרטורת 29 צלסיוס
לחות 55%
לחץ 1022 hPa
ראות 10 קילומטר או יותר
ללא עננים שבסיסם נמוך מ 1500 רגל או קומולונימבוס

שנה יחידות

תחזית

הדו"ח נערך לפני 3 שעות ו 26דקות, בשעה 05:00 UTC
תחזית בתוקף מ 04 ב 06 UTC עד 05 ב 06 UTC
רוח 3קשר עם כיוונים משתנים
ראות 10 קילומטר או יותר
ללא עננים שבסיסם נמוך מ 1500 רגל או קומולונימבוס
המידע באתר זה מותנה של תניית פטור
מזג אוויר : אירופה אפריקה אמריקה הצפונית אמריקה הדרומית אסיה אוסטרליה-אוקיאניה אחרים
תמונות לווין תחזית 10-יוםאקליםתחזית ים סופות טרופיות ברקים שדות תעופהשאלות נפוצות שפות איש קשר עלון אודות